createdAt,value
2022-10-31T00:03:12.492Z,100750.84
2022-10-31T00:13:28.025Z,100753.40
2022-10-31T00:23:47.390Z,100754.14
2022-10-31T00:44:51.630Z,100749.23
2022-10-31T01:27:09.436Z,100754.91
2022-10-31T01:38:09.882Z,100758.27
2022-10-31T01:59:27.544Z,100771.55
2022-10-31T02:09:52.405Z,100766.61
2022-10-31T02:20:48.401Z,100769.89
2022-10-31T02:31:38.329Z,100763.98
2022-10-31T02:42:03.601Z,100768.45
2022-10-31T02:52:37.827Z,100768.46
2022-10-31T03:04:24.380Z,100773.73
2022-10-31T03:15:11.096Z,100786.91
2022-10-31T03:26:06.125Z,100798.92
2022-10-31T03:36:52.759Z,100810.05
2022-10-31T03:47:46.612Z,100816.98
2022-10-31T03:58:27.845Z,100811.89
2022-10-31T04:09:24.831Z,100813.34
2022-10-31T04:19:44.126Z,100808.06
2022-10-31T04:30:18.789Z,100806.89
2022-10-31T04:40:46.545Z,100812.09
2022-10-31T04:51:12.161Z,100815.17
2022-10-31T05:01:32.206Z,100827.55
2022-10-31T05:12:35.215Z,100839.43
2022-10-31T05:33:45.930Z,100837.09
2022-10-31T05:44:30.620Z,100843.64
2022-10-31T05:55:13.965Z,100849.06
2022-10-31T06:05:54.968Z,100846.16
2022-10-31T06:16:35.315Z,100855.09
2022-10-31T06:27:24.270Z,100864.83
2022-10-31T06:37:50.451Z,100860.36
2022-10-31T06:48:37.545Z,100866.00
2022-10-31T06:59:01.378Z,100874.38
2022-10-31T07:09:38.590Z,100883.58
2022-10-31T07:20:05.278Z,100878.25
2022-10-31T07:41:11.840Z,100878.98
2022-10-31T07:52:52.065Z,100881.61
2022-10-31T08:03:20.325Z,100883.41
2022-10-31T08:25:47.002Z,100891.33
2022-10-31T08:37:02.126Z,100902.16
2022-10-31T08:48:07.195Z,100909.05
2022-10-31T09:11:11.073Z,100921.10
2022-10-31T09:33:07.252Z,100913.06
2022-10-31T09:44:22.407Z,100909.70
2022-10-31T09:55:47.291Z,100920.53
2022-10-31T10:06:39.304Z,100921.80
2022-10-31T10:17:53.801Z,100920.20
2022-10-31T10:40:43.803Z,100909.25
2022-10-31T11:03:27.833Z,100896.36
2022-10-31T11:38:15.842Z,100900.73
2022-10-31T11:48:27.231Z,100898.88
2022-10-31T11:58:33.458Z,100901.43
2022-10-31T12:08:39.170Z,100898.25
2022-10-31T12:19:07.456Z,100889.26
2022-10-31T12:29:22.525Z,100885.42
2022-10-31T12:39:43.544Z,100887.27
2022-10-31T12:50:19.719Z,100881.81
2022-10-31T13:49:18.858Z,100886.29
2022-10-31T15:23:02.568Z,100873.77
2022-10-31T15:33:48.494Z,100865.65
2022-10-31T15:44:26.272Z,100865.70
2022-10-31T15:54:29.083Z,100870.27
2022-10-31T16:04:31.140Z,100876.00
2022-10-31T16:14:40.875Z,100876.06
2022-10-31T16:24:58.413Z,100880.20
2022-10-31T16:35:12.513Z,100880.91
2022-10-31T16:45:18.795Z,100876.88
2022-10-31T16:55:21.827Z,100876.65
2022-10-31T17:05:30.291Z,100882.46
2022-10-31T17:16:30.215Z,100878.77
2022-10-31T17:26:49.848Z,100887.46
2022-10-31T17:36:57.336Z,100890.88
2022-10-31T17:47:09.756Z,100893.90
2022-10-31T17:57:20.720Z,100899.76
2022-10-31T18:07:45.074Z,100895.64
2022-10-31T18:17:49.510Z,100891.08
2022-10-31T18:28:06.534Z,100886.39
2022-10-31T18:38:19.814Z,100884.30
2022-10-31T18:48:31.007Z,100888.38
2022-10-31T19:23:32.304Z,100876.00
2022-10-31T19:44:48.906Z,100879.10
2022-10-31T20:29:22.985Z,100847.70
2022-10-31T20:51:47.373Z,100845.48
2022-10-31T21:49:51.285Z,100833.14
2022-10-31T22:35:15.481Z,100815.94
2022-10-31T22:57:42.036Z,100794.24
2022-10-31T23:08:31.830Z,100798.23
2022-10-31T23:19:52.222Z,100802.70
